sensor_id;sensor_type;location;lat;lon;timestamp;P1;durP1;ratioP1;P2;durP2;ratioP2
4102;SDS011;2065;49.790;9.620;2022-08-19T00:00:31;19.90;;;14.30;;
4102;SDS011;2065;49.790;9.620;2022-08-19T00:02:58;17.60;;;13.97;;
4102;SDS011;2065;49.790;9.620;2022-08-19T00:05:27;17.80;;;14.00;;
4102;SDS011;2065;49.790;9.620;2022-08-19T00:07:54;18.60;;;14.50;;
4102;SDS011;2065;49.790;9.620;2022-08-19T00:10:21;18.80;;;14.77;;
4102;SDS011;2065;49.790;9.620;2022-08-19T00:12:49;24.27;;;15.50;;
4102;SDS011;2065;49.790;9.620;2022-08-19T00:15:17;19.30;;;14.40;;
4102;SDS011;2065;49.790;9.620;2022-08-19T00:17:45;20.93;;;14.23;;
4102;SDS011;2065;49.790;9.620;2022-08-19T00:20:14;22.33;;;16.03;;
4102;SDS011;2065;49.790;9.620;2022-08-19T00:22:45;19.60;;;13.50;;
4102;SDS011;2065;49.790;9.620;2022-08-19T00:25:13;20.47;;;15.57;;
4102;SDS011;2065;49.790;9.620;2022-08-19T00:27:40;19.30;;;14.40;;
4102;SDS011;2065;49.790;9.620;2022-08-19T00:30:07;20.20;;;14.60;;
4102;SDS011;2065;49.790;9.620;2022-08-19T00:32:36;20.67;;;14.37;;
4102;SDS011;2065;49.790;9.620;2022-08-19T00:35:04;21.07;;;15.20;;
4102;SDS011;2065;49.790;9.620;2022-08-19T00:37:31;20.07;;;14.90;;
4102;SDS011;2065;49.790;9.620;2022-08-19T00:40:02;18.77;;;14.53;;
4102;SDS011;2065;49.790;9.620;2022-08-19T00:42:31;20.70;;;15.00;;
4102;SDS011;2065;49.790;9.620;2022-08-19T00:44:58;19.80;;;14.83;;
4102;SDS011;2065;49.790;9.620;2022-08-19T00:47:26;18.77;;;13.90;;
4102;SDS011;2065;49.790;9.620;2022-08-19T00:49:54;18.43;;;14.90;;
4102;SDS011;2065;49.790;9.620;2022-08-19T00:52:24;18.63;;;14.20;;
4102;SDS011;2065;49.790;9.620;2022-08-19T00:54:54;18.97;;;13.87;;
4102;SDS011;2065;49.790;9.620;2022-08-19T00:57:23;18.23;;;14.13;;
4102;SDS011;2065;49.790;9.620;2022-08-19T00:59:54;20.53;;;14.70;;
4102;SDS011;2065;49.790;9.620;2022-08-19T01:02:24;19.17;;;13.50;;
4102;SDS011;2065;49.790;9.620;2022-08-19T01:04:53;20.43;;;13.97;;
4102;SDS011;2065;49.790;9.620;2022-08-19T01:07:20;20.50;;;14.67;;
4102;SDS011;2065;49.790;9.620;2022-08-19T01:09:47;17.20;;;13.33;;
4102;SDS011;2065;49.790;9.620;2022-08-19T01:12:15;17.30;;;14.10;;
4102;SDS011;2065;49.790;9.620;2022-08-19T01:14:44;18.83;;;14.20;;
4102;SDS011;2065;49.790;9.620;2022-08-19T01:17:12;17.13;;;13.77;;
4102;SDS011;2065;49.790;9.620;2022-08-19T01:19:42;17.43;;;13.10;;
4102;SDS011;2065;49.790;9.620;2022-08-19T01:22:12;19.53;;;14.50;;
4102;SDS011;2065;49.790;9.620;2022-08-19T01:24:45;16.93;;;13.03;;
4102;SDS011;2065;49.790;9.620;2022-08-19T01:27:12;19.07;;;13.47;;
4102;SDS011;2065;49.790;9.620;2022-08-19T01:29:40;21.80;;;14.70;;
4102;SDS011;2065;49.790;9.620;2022-08-19T01:32:07;16.37;;;12.50;;
4102;SDS011;2065;49.790;9.620;2022-08-19T01:34:38;19.17;;;14.10;;
4102;SDS011;2065;49.790;9.620;2022-08-19T01:37:06;17.67;;;14.90;;
4102;SDS011;2065;49.790;9.620;2022-08-19T01:39:36;18.67;;;12.90;;
4102;SDS011;2065;49.790;9.620;2022-08-19T01:42:06;20.47;;;14.93;;
4102;SDS011;2065;49.790;9.620;2022-08-19T01:44:36;16.70;;;13.60;;
4102;SDS011;2065;49.790;9.620;2022-08-19T01:47:04;22.57;;;14.70;;
4102;SDS011;2065;49.790;9.620;2022-08-19T01:49:31;20.53;;;14.33;;
4102;SDS011;2065;49.790;9.620;2022-08-19T01:51:59;18.37;;;12.93;;
4102;SDS011;2065;49.790;9.620;2022-08-19T01:54:27;17.13;;;13.10;;
4102;SDS011;2065;49.790;9.620;2022-08-19T01:56:55;18.60;;;14.47;;
4102;SDS011;2065;49.790;9.620;2022-08-19T01:59:28;22.37;;;15.97;;
4102;SDS011;2065;49.790;9.620;2022-08-19T02:01:55;18.37;;;13.00;;
4102;SDS011;2065;49.790;9.620;2022-08-19T02:04:22;18.73;;;13.93;;
4102;SDS011;2065;49.790;9.620;2022-08-19T02:06:50;18.07;;;14.20;;
4102;SDS011;2065;49.790;9.620;2022-08-19T02:09:17;19.43;;;14.83;;
4102;SDS011;2065;49.790;9.620;2022-08-19T02:11:44;24.37;;;14.90;;
4102;SDS011;2065;49.790;9.620;2022-08-19T02:14:11;18.47;;;15.13;;
4102;SDS011;2065;49.790;9.620;2022-08-19T02:16:40;21.67;;;14.83;;
4102;SDS011;2065;49.790;9.620;2022-08-19T02:19:07;19.03;;;14.70;;
4102;SDS011;2065;49.790;9.620;2022-08-19T02:21:35;20.30;;;14.73;;
4102;SDS011;2065;49.790;9.620;2022-08-19T02:24:03;18.37;;;14.20;;
4102;SDS011;2065;49.790;9.620;2022-08-19T02:26:31;20.40;;;14.33;;
4102;SDS011;2065;49.790;9.620;2022-08-19T02:28:58;19.40;;;14.80;;
4102;SDS011;2065;49.790;9.620;2022-08-19T02:31:25;21.33;;;15.30;;
4102;SDS011;2065;49.790;9.620;2022-08-19T02:33:55;21.30;;;14.70;;
4102;SDS011;2065;49.790;9.620;2022-08-19T02:36:24;17.00;;;13.17;;
4102;SDS011;2065;49.790;9.620;2022-08-19T02:38:51;23.97;;;15.10;;
4102;SDS011;2065;49.790;9.620;2022-08-19T02:41:19;19.70;;;14.63;;
4102;SDS011;2065;49.790;9.620;2022-08-19T02:43:47;18.50;;;14.30;;
4102;SDS011;2065;49.790;9.620;2022-08-19T02:46:15;18.90;;;14.93;;
4102;SDS011;2065;49.790;9.620;2022-08-19T02:48:46;20.70;;;15.07;;
4102;SDS011;2065;49.790;9.620;2022-08-19T02:51:19;19.40;;;14.13;;
4102;SDS011;2065;49.790;9.620;2022-08-19T02:53:48;18.30;;;14.67;;
4102;SDS011;2065;49.790;9.620;2022-08-19T02:56:16;20.07;;;14.13;;
4102;SDS011;2065;49.790;9.620;2022-08-19T02:58:44;19.37;;;13.60;;
4102;SDS011;2065;49.790;9.620;2022-08-19T03:01:18;20.07;;;14.60;;
4102;SDS011;2065;49.790;9.620;2022-08-19T03:03:46;17.73;;;14.40;;
4102;SDS011;2065;49.790;9.620;2022-08-19T03:06:14;19.73;;;13.87;;
4102;SDS011;2065;49.790;9.620;2022-08-19T03:08:44;20.67;;;14.40;;
4102;SDS011;2065;49.790;9.620;2022-08-19T03:11:13;20.60;;;15.00;;
4102;SDS011;2065;49.790;9.620;2022-08-19T03:13:42;20.37;;;14.57;;
4102;SDS011;2065;49.790;9.620;2022-08-19T03:16:10;18.27;;;14.97;;
4102;SDS011;2065;49.790;9.620;2022-08-19T03:18:38;20.23;;;14.27;;
4102;SDS011;2065;49.790;9.620;2022-08-19T03:21:05;20.40;;;14.57;;
4102;SDS011;2065;49.790;9.620;2022-08-19T03:23:32;23.00;;;14.07;;
4102;SDS011;2065;49.790;9.620;2022-08-19T03:26:03;17.57;;;13.47;;
4102;SDS011;2065;49.790;9.620;2022-08-19T03:28:31;17.27;;;13.43;;
4102;SDS011;2065;49.790;9.620;2022-08-19T03:31:00;19.40;;;14.03;;
4102;SDS011;2065;49.790;9.620;2022-08-19T03:33:28;18.77;;;13.90;;
4102;SDS011;2065;49.790;9.620;2022-08-19T03:36:03;20.60;;;13.20;;
4102;SDS011;2065;49.790;9.620;2022-08-19T03:38:33;18.67;;;13.67;;
4102;SDS011;2065;49.790;9.620;2022-08-19T03:41:06;21.00;;;14.27;;
4102;SDS011;2065;49.790;9.620;2022-08-19T03:43:36;20.37;;;13.50;;
4102;SDS011;2065;49.790;9.620;2022-08-19T03:46:06;22.80;;;14.60;;
4102;SDS011;2065;49.790;9.620;2022-08-19T03:48:35;20.90;;;15.57;;
4102;SDS011;2065;49.790;9.620;2022-08-19T03:51:03;17.73;;;12.40;;
4102;SDS011;2065;49.790;9.620;2022-08-19T03:53:31;17.87;;;14.27;;
4102;SDS011;2065;49.790;9.620;2022-08-19T03:56:00;17.23;;;14.23;;
4102;SDS011;2065;49.790;9.620;2022-08-19T03:58:29;19.57;;;13.70;;
4102;SDS011;2065;49.790;9.620;2022-08-19T04:00:56;17.27;;;13.03;;
4102;SDS011;2065;49.790;9.620;2022-08-19T04:03:24;15.10;;;11.77;;
4102;SDS011;2065;49.790;9.620;2022-08-19T04:05:52;21.83;;;13.33;;
4102;SDS011;2065;49.790;9.620;2022-08-19T04:08:20;21.40;;;15.60;;
4102;SDS011;2065;49.790;9.620;2022-08-19T04:10:47;17.63;;;13.63;;
4102;SDS011;2065;49.790;9.620;2022-08-19T04:13:15;21.90;;;14.30;;
4102;SDS011;2065;49.790;9.620;2022-08-19T04:15:45;17.10;;;13.93;;
4102;SDS011;2065;49.790;9.620;2022-08-19T04:18:12;21.53;;;13.87;;
4102;SDS011;2065;49.790;9.620;2022-08-19T04:20:41;19.20;;;14.40;;
4102;SDS011;2065;49.790;9.620;2022-08-19T04:23:08;22.43;;;15.23;;
4102;SDS011;2065;49.790;9.620;2022-08-19T04:25:37;22.97;;;16.27;;
4102;SDS011;2065;49.790;9.620;2022-08-19T04:28:04;18.70;;;13.90;;
4102;SDS011;2065;49.790;9.620;2022-08-19T04:30:36;19.23;;;14.77;;
4102;SDS011;2065;49.790;9.620;2022-08-19T04:33:06;23.57;;;15.10;;
4102;SDS011;2065;49.790;9.620;2022-08-19T04:35:36;19.37;;;14.67;;
4102;SDS011;2065;49.790;9.620;2022-08-19T04:38:07;17.13;;;14.20;;
4102;SDS011;2065;49.790;9.620;2022-08-19T04:40:39;15.97;;;12.70;;
4102;SDS011;2065;49.790;9.620;2022-08-19T04:43:24;16.80;;;12.87;;
4102;SDS011;2065;49.790;9.620;2022-08-19T04:45:51;19.10;;;14.43;;
4102;SDS011;2065;49.790;9.620;2022-08-19T04:48:20;15.60;;;12.90;;
4102;SDS011;2065;49.790;9.620;2022-08-19T04:50:51;20.90;;;15.33;;
4102;SDS011;2065;49.790;9.620;2022-08-19T04:53:23;24.67;;;14.77;;
4102;SDS011;2065;49.790;9.620;2022-08-19T04:55:50;18.27;;;14.80;;
4102;SDS011;2065;49.790;9.620;2022-08-19T04:58:17;18.67;;;13.07;;
4102;SDS011;2065;49.790;9.620;2022-08-19T05:00:44;17.07;;;12.93;;
4102;SDS011;2065;49.790;9.620;2022-08-19T05:03:11;18.60;;;13.90;;
4102;SDS011;2065;49.790;9.620;2022-08-19T05:05:43;18.30;;;14.03;;
4102;SDS011;2065;49.790;9.620;2022-08-19T05:08:13;17.13;;;13.23;;
4102;SDS011;2065;49.790;9.620;2022-08-19T05:10:45;15.73;;;12.70;;
4102;SDS011;2065;49.790;9.620;2022-08-19T05:13:13;17.53;;;12.40;;
4102;SDS011;2065;49.790;9.620;2022-08-19T05:15:42;15.77;;;13.10;;
4102;SDS011;2065;49.790;9.620;2022-08-19T05:18:09;20.47;;;13.50;;
4102;SDS011;2065;49.790;9.620;2022-08-19T05:20:56;16.83;;;12.60;;
4102;SDS011;2065;49.790;9.620;2022-08-19T05:23:40;17.40;;;14.43;;
4102;SDS011;2065;49.790;9.620;2022-08-19T05:26:07;17.33;;;13.80;;
4102;SDS011;2065;49.790;9.620;2022-08-19T05:28:36;20.73;;;12.90;;
4102;SDS011;2065;49.790;9.620;2022-08-19T05:31:03;16.67;;;12.90;;
4102;SDS011;2065;49.790;9.620;2022-08-19T05:33:30;19.03;;;14.10;;
4102;SDS011;2065;49.790;9.620;2022-08-19T05:35:59;19.60;;;13.13;;
4102;SDS011;2065;49.790;9.620;2022-08-19T05:38:27;20.27;;;13.03;;
4102;SDS011;2065;49.790;9.620;2022-08-19T05:40:55;19.90;;;12.03;;
4102;SDS011;2065;49.790;9.620;2022-08-19T05:43:22;20.50;;;13.83;;
4102;SDS011;2065;49.790;9.620;2022-08-19T05:45:49;19.17;;;14.13;;
4102;SDS011;2065;49.790;9.620;2022-08-19T05:48:16;20.67;;;13.40;;
4102;SDS011;2065;49.790;9.620;2022-08-19T05:50:45;20.13;;;14.67;;
4102;SDS011;2065;49.790;9.620;2022-08-19T05:53:16;21.00;;;14.23;;
4102;SDS011;2065;49.790;9.620;2022-08-19T05:55:44;19.97;;;13.60;;
4102;SDS011;2065;49.790;9.620;2022-08-19T05:58:11;23.90;;;15.10;;
4102;SDS011;2065;49.790;9.620;2022-08-19T06:00:38;20.73;;;14.43;;
4102;SDS011;2065;49.790;9.620;2022-08-19T06:03:06;22.27;;;13.10;;
4102;SDS011;2065;49.790;9.620;2022-08-19T06:05:33;19.40;;;14.20;;
4102;SDS011;2065;49.790;9.620;2022-08-19T06:08:00;19.90;;;13.27;;
4102;SDS011;2065;49.790;9.620;2022-08-19T06:10:28;21.50;;;14.77;;
4102;SDS011;2065;49.790;9.620;2022-08-19T06:12:56;16.50;;;14.00;;
4102;SDS011;2065;49.790;9.620;2022-08-19T06:15:23;19.00;;;13.60;;
4102;SDS011;2065;49.790;9.620;2022-08-19T06:17:50;17.23;;;13.87;;
4102;SDS011;2065;49.790;9.620;2022-08-19T06:20:17;18.87;;;14.20;;
4102;SDS011;2065;49.790;9.620;2022-08-19T06:22:47;16.20;;;13.87;;
4102;SDS011;2065;49.790;9.620;2022-08-19T06:25:16;21.30;;;14.70;;
4102;SDS011;2065;49.790;9.620;2022-08-19T06:27:45;15.33;;;13.10;;
4102;SDS011;2065;49.790;9.620;2022-08-19T06:30:13;17.60;;;13.83;;
4102;SDS011;2065;49.790;9.620;2022-08-19T06:32:40;19.37;;;12.83;;
4102;SDS011;2065;49.790;9.620;2022-08-19T06:35:08;17.07;;;14.00;;
4102;SDS011;2065;49.790;9.620;2022-08-19T06:37:36;14.97;;;12.40;;
4102;SDS011;2065;49.790;9.620;2022-08-19T06:40:03;17.43;;;12.70;;
4102;SDS011;2065;49.790;9.620;2022-08-19T06:42:33;13.57;;;12.07;;
4102;SDS011;2065;49.790;9.620;2022-08-19T06:45:05;19.13;;;13.83;;
4102;SDS011;2065;49.790;9.620;2022-08-19T06:47:36;15.23;;;12.53;;
4102;SDS011;2065;49.790;9.620;2022-08-19T06:50:05;15.90;;;12.70;;
4102;SDS011;2065;49.790;9.620;2022-08-19T06:52:34;15.23;;;12.17;;
4102;SDS011;2065;49.790;9.620;2022-08-19T06:55:03;15.80;;;13.10;;
4102;SDS011;2065;49.790;9.620;2022-08-19T06:57:31;16.23;;;12.13;;
4102;SDS011;2065;49.790;9.620;2022-08-19T06:59:58;17.73;;;12.83;;
4102;SDS011;2065;49.790;9.620;2022-08-19T07:02:27;17.00;;;13.07;;
4102;SDS011;2065;49.790;9.620;2022-08-19T07:04:54;17.27;;;12.30;;
4102;SDS011;2065;49.790;9.620;2022-08-19T07:07:23;15.77;;;11.57;;
4102;SDS011;2065;49.790;9.620;2022-08-19T07:09:52;14.13;;;12.17;;
4102;SDS011;2065;49.790;9.620;2022-08-19T07:12:21;16.00;;;12.80;;
4102;SDS011;2065;49.790;9.620;2022-08-19T07:14:50;18.03;;;13.03;;
4102;SDS011;2065;49.790;9.620;2022-08-19T07:17:23;19.10;;;12.07;;
4102;SDS011;2065;49.790;9.620;2022-08-19T07:19:51;17.93;;;12.27;;
4102;SDS011;2065;49.790;9.620;2022-08-19T07:22:20;18.23;;;12.80;;
4102;SDS011;2065;49.790;9.620;2022-08-19T07:24:48;16.63;;;12.30;;
4102;SDS011;2065;49.790;9.620;2022-08-19T07:27:16;20.17;;;13.30;;
4102;SDS011;2065;49.790;9.620;2022-08-19T07:29:44;15.90;;;12.87;;
4102;SDS011;2065;49.790;9.620;2022-08-19T07:32:11;15.23;;;11.50;;
4102;SDS011;2065;49.790;9.620;2022-08-19T07:34:38;14.40;;;12.10;;
4102;SDS011;2065;49.790;9.620;2022-08-19T07:37:06;17.10;;;12.80;;
4102;SDS011;2065;49.790;9.620;2022-08-19T07:39:34;15.90;;;12.43;;
4102;SDS011;2065;49.790;9.620;2022-08-19T07:42:05;15.93;;;13.07;;
4102;SDS011;2065;49.790;9.620;2022-08-19T07:44:35;14.13;;;12.33;;
4102;SDS011;2065;49.790;9.620;2022-08-19T07:47:03;15.07;;;12.10;;
4102;SDS011;2065;49.790;9.620;2022-08-19T07:49:32;13.57;;;11.43;;
4102;SDS011;2065;49.790;9.620;2022-08-19T07:52:00;13.80;;;11.77;;
4102;SDS011;2065;49.790;9.620;2022-08-19T07:54:30;15.77;;;12.63;;
4102;SDS011;2065;49.790;9.620;2022-08-19T07:57:00;13.53;;;11.50;;
4102;SDS011;2065;49.790;9.620;2022-08-19T07:59:28;14.80;;;11.60;;
4102;SDS011;2065;49.790;9.620;2022-08-19T08:01:56;13.90;;;12.40;;
4102;SDS011;2065;49.790;9.620;2022-08-19T08:04:24;16.37;;;11.60;;
4102;SDS011;2065;49.790;9.620;2022-08-19T08:07:10;11.00;;;9.90;;
4102;SDS011;2065;49.790;9.620;2022-08-19T08:09:56;12.67;;;11.33;;
4102;SDS011;2065;49.790;9.620;2022-08-19T08:12:25;12.90;;;10.83;;
4102;SDS011;2065;49.790;9.620;2022-08-19T08:14:56;12.37;;;11.07;;
4102;SDS011;2065;49.790;9.620;2022-08-19T08:17:29;13.03;;;10.77;;
4102;SDS011;2065;49.790;9.620;2022-08-19T08:19:57;13.63;;;10.63;;
4102;SDS011;2065;49.790;9.620;2022-08-19T08:22:25;12.00;;;9.53;;
4102;SDS011;2065;49.790;9.620;2022-08-19T08:25:13;12.77;;;10.23;;
4102;SDS011;2065;49.790;9.620;2022-08-19T08:27:42;10.33;;;8.87;;
4102;SDS011;2065;49.790;9.620;2022-08-19T08:30:13;9.03;;;8.13;;
4102;SDS011;2065;49.790;9.620;2022-08-19T08:32:41;14.93;;;9.40;;
4102;SDS011;2065;49.790;9.620;2022-08-19T08:35:10;11.53;;;9.20;;
4102;SDS011;2065;49.790;9.620;2022-08-19T08:37:45;15.03;;;8.50;;
4102;SDS011;2065;49.790;9.620;2022-08-19T08:40:18;11.17;;;8.33;;
4102;SDS011;2065;49.790;9.620;2022-08-19T08:42:50;13.50;;;8.47;;
4102;SDS011;2065;49.790;9.620;2022-08-19T08:45:23;8.97;;;8.07;;
4102;SDS011;2065;49.790;9.620;2022-08-19T08:47:51;9.47;;;8.20;;
4102;SDS011;2065;49.790;9.620;2022-08-19T08:50:24;9.47;;;8.10;;
4102;SDS011;2065;49.790;9.620;2022-08-19T08:52:56;7.90;;;7.10;;
4102;SDS011;2065;49.790;9.620;2022-08-19T08:55:27;8.47;;;6.83;;
4102;SDS011;2065;49.790;9.620;2022-08-19T08:57:57;10.00;;;7.80;;
4102;SDS011;2065;49.790;9.620;2022-08-19T09:00:29;6.67;;;6.07;;
4102;SDS011;2065;49.790;9.620;2022-08-19T09:02:58;7.10;;;6.40;;
4102;SDS011;2065;49.790;9.620;2022-08-19T09:05:27;7.50;;;6.00;;
4102;SDS011;2065;49.790;9.620;2022-08-19T09:08:00;7.97;;;6.10;;
4102;SDS011;2065;49.790;9.620;2022-08-19T09:10:34;6.70;;;6.10;;
4102;SDS011;2065;49.790;9.620;2022-08-19T09:13:07;7.20;;;5.90;;
4102;SDS011;2065;49.790;9.620;2022-08-19T09:15:40;7.80;;;6.17;;
4102;SDS011;2065;49.790;9.620;2022-08-19T09:18:14;6.80;;;5.80;;
4102;SDS011;2065;49.790;9.620;2022-08-19T09:20:42;6.47;;;5.97;;
4102;SDS011;2065;49.790;9.620;2022-08-19T09:23:09;6.00;;;5.33;;
4102;SDS011;2065;49.790;9.620;2022-08-19T09:25:38;7.50;;;5.40;;
4102;SDS011;2065;49.790;9.620;2022-08-19T09:28:05;5.93;;;5.43;;
4102;SDS011;2065;49.790;9.620;2022-08-19T09:30:33;5.00;;;4.60;;
4102;SDS011;2065;49.790;9.620;2022-08-19T09:33:05;10.27;;;4.87;;
4102;SDS011;2065;49.790;9.620;2022-08-19T09:35:32;6.07;;;4.73;;
4102;SDS011;2065;49.790;9.620;2022-08-19T09:38:00;4.30;;;3.90;;
4102;SDS011;2065;49.790;9.620;2022-08-19T09:40:27;5.80;;;4.13;;
4102;SDS011;2065;49.790;9.620;2022-08-19T09:42:56;5.00;;;4.50;;
4102;SDS011;2065;49.790;9.620;2022-08-19T09:45:28;5.90;;;4.83;;
4102;SDS011;2065;49.790;9.620;2022-08-19T09:47:55;4.63;;;4.23;;
4102;SDS011;2065;49.790;9.620;2022-08-19T09:50:22;5.83;;;4.77;;
4102;SDS011;2065;49.790;9.620;2022-08-19T09:52:50;4.60;;;4.20;;
4102;SDS011;2065;49.790;9.620;2022-08-19T09:55:19;5.70;;;5.20;;
4102;SDS011;2065;49.790;9.620;2022-08-19T09:57:46;9.63;;;6.17;;
4102;SDS011;2065;49.790;9.620;2022-08-19T10:00:14;6.80;;;4.50;;
4102;SDS011;2065;49.790;9.620;2022-08-19T10:02:41;7.47;;;5.97;;
4102;SDS011;2065;49.790;9.620;2022-08-19T10:05:08;5.77;;;5.23;;
4102;SDS011;2065;49.790;9.620;2022-08-19T10:07:53;7.00;;;5.77;;
4102;SDS011;2065;49.790;9.620;2022-08-19T10:10:20;7.93;;;5.30;;
4102;SDS011;2065;49.790;9.620;2022-08-19T10:12:47;6.93;;;6.23;;
4102;SDS011;2065;49.790;9.620;2022-08-19T10:15:15;7.33;;;5.77;;
4102;SDS011;2065;49.790;9.620;2022-08-19T10:17:46;6.30;;;5.70;;
4102;SDS011;2065;49.790;9.620;2022-08-19T10:20:13;5.77;;;5.27;;
4102;SDS011;2065;49.790;9.620;2022-08-19T10:22:40;8.80;;;6.50;;
4102;SDS011;2065;49.790;9.620;2022-08-19T10:25:08;8.10;;;6.30;;
4102;SDS011;2065;49.790;9.620;2022-08-19T10:27:36;8.20;;;5.80;;
4102;SDS011;2065;49.790;9.620;2022-08-19T10:30:04;6.83;;;6.13;;
4102;SDS011;2065;49.790;9.620;2022-08-19T10:32:33;6.50;;;5.83;;
4102;SDS011;2065;49.790;9.620;2022-08-19T10:35:00;7.20;;;5.73;;
4102;SDS011;2065;49.790;9.620;2022-08-19T10:37:31;5.93;;;5.50;;
4102;SDS011;2065;49.790;9.620;2022-08-19T10:39:58;6.80;;;5.30;;
4102;SDS011;2065;49.790;9.620;2022-08-19T10:42:25;6.43;;;5.27;;
4102;SDS011;2065;49.790;9.620;2022-08-19T10:44:52;5.53;;;4.93;;
4102;SDS011;2065;49.790;9.620;2022-08-19T10:47:19;5.87;;;5.13;;
4102;SDS011;2065;49.790;9.620;2022-08-19T10:49:49;6.10;;;5.07;;
4102;SDS011;2065;49.790;9.620;2022-08-19T10:52:34;6.10;;;5.20;;
4102;SDS011;2065;49.790;9.620;2022-08-19T10:55:02;5.07;;;4.57;;
4102;SDS011;2065;49.790;9.620;2022-08-19T10:57:48;6.70;;;4.93;;
4102;SDS011;2065;49.790;9.620;2022-08-19T11:00:15;7.13;;;4.97;;
4102;SDS011;2065;49.790;9.620;2022-08-19T11:02:42;4.80;;;4.30;;
4102;SDS011;2065;49.790;9.620;2022-08-19T11:05:13;6.03;;;4.60;;
4102;SDS011;2065;49.790;9.620;2022-08-19T11:07:40;5.33;;;4.83;;
4102;SDS011;2065;49.790;9.620;2022-08-19T11:10:08;4.67;;;4.27;;
4102;SDS011;2065;49.790;9.620;2022-08-19T11:12:39;5.23;;;4.73;;
4102;SDS011;2065;49.790;9.620;2022-08-19T11:15:07;4.30;;;3.90;;
4102;SDS011;2065;49.790;9.620;2022-08-19T11:17:36;4.73;;;4.33;;
4102;SDS011;2065;49.790;9.620;2022-08-19T11:20:06;5.30;;;4.30;;
4102;SDS011;2065;49.790;9.620;2022-08-19T11:22:35;4.30;;;3.90;;
4102;SDS011;2065;49.790;9.620;2022-08-19T11:25:03;4.40;;;3.83;;
4102;SDS011;2065;49.790;9.620;2022-08-19T11:27:30;5.87;;;4.60;;
4102;SDS011;2065;49.790;9.620;2022-08-19T11:29:57;4.23;;;3.87;;
4102;SDS011;2065;49.790;9.620;2022-08-19T11:32:24;4.30;;;3.90;;
4102;SDS011;2065;49.790;9.620;2022-08-19T11:34:52;4.00;;;3.70;;
4102;SDS011;2065;49.790;9.620;2022-08-19T11:37:19;3.43;;;3.13;;
4102;SDS011;2065;49.790;9.620;2022-08-19T11:39:48;4.70;;;3.90;;
4102;SDS011;2065;49.790;9.620;2022-08-19T11:42:15;3.20;;;3.00;;
4102;SDS011;2065;49.790;9.620;2022-08-19T11:45:01;3.93;;;3.50;;
4102;SDS011;2065;49.790;9.620;2022-08-19T11:47:31;3.90;;;3.60;;
4102;SDS011;2065;49.790;9.620;2022-08-19T11:49:58;4.00;;;3.50;;
4102;SDS011;2065;49.790;9.620;2022-08-19T11:52:25;4.80;;;3.80;;
4102;SDS011;2065;49.790;9.620;2022-08-19T11:54:53;4.13;;;3.73;;
4102;SDS011;2065;49.790;9.620;2022-08-19T11:57:20;3.87;;;3.20;;
4102;SDS011;2065;49.790;9.620;2022-08-19T11:59:48;6.27;;;3.20;;
4102;SDS011;2065;49.790;9.620;2022-08-19T12:02:16;3.47;;;3.27;;
4102;SDS011;2065;49.790;9.620;2022-08-19T12:04:44;4.57;;;3.60;;
4102;SDS011;2065;49.790;9.620;2022-08-19T12:07:11;3.33;;;3.10;;
4102;SDS011;2065;49.790;9.620;2022-08-19T12:09:38;4.57;;;3.40;;
4102;SDS011;2065;49.790;9.620;2022-08-19T12:12:07;3.40;;;2.90;;
4102;SDS011;2065;49.790;9.620;2022-08-19T12:14:34;2.97;;;2.77;;
4102;SDS011;2065;49.790;9.620;2022-08-19T12:17:02;3.53;;;3.23;;
4102;SDS011;2065;49.790;9.620;2022-08-19T12:19:31;3.23;;;2.80;;
4102;SDS011;2065;49.790;9.620;2022-08-19T12:21:59;4.37;;;2.73;;
4102;SDS011;2065;49.790;9.620;2022-08-19T12:24:29;3.53;;;3.27;;
4102;SDS011;2065;49.790;9.620;2022-08-19T12:26:57;3.40;;;3.10;;
4102;SDS011;2065;49.790;9.620;2022-08-19T12:29:28;2.97;;;2.50;;
4102;SDS011;2065;49.790;9.620;2022-08-19T12:31:56;3.40;;;2.87;;
4102;SDS011;2065;49.790;9.620;2022-08-19T12:34:26;2.80;;;2.60;;
4102;SDS011;2065;49.790;9.620;2022-08-19T12:36:56;5.20;;;3.20;;
4102;SDS011;2065;49.790;9.620;2022-08-19T12:39:23;3.60;;;3.03;;
4102;SDS011;2065;49.790;9.620;2022-08-19T12:41:51;2.90;;;2.70;;
4102;SDS011;2065;49.790;9.620;2022-08-19T12:44:18;3.33;;;3.03;;
4102;SDS011;2065;49.790;9.620;2022-08-19T12:46:47;2.87;;;2.67;;
4102;SDS011;2065;49.790;9.620;2022-08-19T12:49:15;10.83;;;3.17;;
4102;SDS011;2065;49.790;9.620;2022-08-19T12:51:42;3.20;;;3.00;;
4102;SDS011;2065;49.790;9.620;2022-08-19T12:54:09;3.23;;;3.03;;
4102;SDS011;2065;49.790;9.620;2022-08-19T12:56:36;3.03;;;2.77;;
4102;SDS011;2065;49.790;9.620;2022-08-19T12:59:03;3.43;;;2.80;;
4102;SDS011;2065;49.790;9.620;2022-08-19T13:01:33;3.00;;;2.80;;
4102;SDS011;2065;49.790;9.620;2022-08-19T13:04:01;5.33;;;2.63;;
4102;SDS011;2065;49.790;9.620;2022-08-19T13:06:29;3.33;;;3.13;;
4102;SDS011;2065;49.790;9.620;2022-08-19T13:08:56;3.37;;;3.17;;
4102;SDS011;2065;49.790;9.620;2022-08-19T13:11:23;3.40;;;3.10;;
4102;SDS011;2065;49.790;9.620;2022-08-19T13:13:50;3.40;;;3.10;;
4102;SDS011;2065;49.790;9.620;2022-08-19T13:16:20;3.40;;;3.20;;
4102;SDS011;2065;49.790;9.620;2022-08-19T13:18:47;3.50;;;3.07;;
4102;SDS011;2065;49.790;9.620;2022-08-19T13:21:18;2.87;;;2.60;;
4102;SDS011;2065;49.790;9.620;2022-08-19T13:23:46;3.10;;;2.90;;
4102;SDS011;2065;49.790;9.620;2022-08-19T13:26:14;3.17;;;2.87;;
4102;SDS011;2065;49.790;9.620;2022-08-19T13:28:42;3.50;;;2.90;;
4102;SDS011;2065;49.790;9.620;2022-08-19T13:31:28;3.73;;;3.27;;
4102;SDS011;2065;49.790;9.620;2022-08-19T13:34:15;3.10;;;2.90;;
4102;SDS011;2065;49.790;9.620;2022-08-19T13:36:45;6.50;;;3.47;;
4102;SDS011;2065;49.790;9.620;2022-08-19T13:39:13;3.20;;;3.00;;
4102;SDS011;2065;49.790;9.620;2022-08-19T13:41:43;2.60;;;2.40;;
4102;SDS011;2065;49.790;9.620;2022-08-19T13:44:13;2.70;;;2.50;;
4102;SDS011;2065;49.790;9.620;2022-08-19T13:46:40;2.63;;;2.43;;
4102;SDS011;2065;49.790;9.620;2022-08-19T13:49:21;3.33;;;3.00;;
4102;SDS011;2065;49.790;9.620;2022-08-19T13:52:02;2.80;;;2.60;;
4102;SDS011;2065;49.790;9.620;2022-08-19T13:54:34;3.77;;;2.70;;
4102;SDS011;2065;49.790;9.620;2022-08-19T13:57:02;2.93;;;2.70;;
4102;SDS011;2065;49.790;9.620;2022-08-19T13:59:30;3.03;;;2.67;;
4102;SDS011;2065;49.790;9.620;2022-08-19T14:01:58;6.23;;;3.30;;
4102;SDS011;2065;49.790;9.620;2022-08-19T14:04:25;3.40;;;3.20;;
4102;SDS011;2065;49.790;9.620;2022-08-19T14:06:53;3.97;;;3.63;;
4102;SDS011;2065;49.790;9.620;2022-08-19T14:09:22;3.13;;;2.93;;
4102;SDS011;2065;49.790;9.620;2022-08-19T14:11:49;5.03;;;3.83;;
4102;SDS011;2065;49.790;9.620;2022-08-19T14:14:16;3.67;;;3.47;;
4102;SDS011;2065;49.790;9.620;2022-08-19T14:16:43;3.83;;;3.33;;
4102;SDS011;2065;49.790;9.620;2022-08-19T14:19:10;5.40;;;3.20;;
4102;SDS011;2065;49.790;9.620;2022-08-19T14:21:37;3.20;;;2.90;;
4102;SDS011;2065;49.790;9.620;2022-08-19T14:24:06;4.40;;;3.13;;
4102;SDS011;2065;49.790;9.620;2022-08-19T14:26:35;3.40;;;3.10;;
4102;SDS011;2065;49.790;9.620;2022-08-19T14:29:02;7.17;;;2.93;;
4102;SDS011;2065;49.790;9.620;2022-08-19T14:31:29;3.20;;;2.83;;
4102;SDS011;2065;49.790;9.620;2022-08-19T14:33:56;3.30;;;3.00;;
4102;SDS011;2065;49.790;9.620;2022-08-19T14:36:23;3.23;;;2.93;;
4102;SDS011;2065;49.790;9.620;2022-08-19T14:38:50;3.03;;;2.60;;
4102;SDS011;2065;49.790;9.620;2022-08-19T14:41:17;7.17;;;3.60;;
4102;SDS011;2065;49.790;9.620;2022-08-19T14:43:49;4.50;;;3.17;;
4102;SDS011;2065;49.790;9.620;2022-08-19T14:46:18;2.80;;;2.60;;
4102;SDS011;2065;49.790;9.620;2022-08-19T14:48:47;6.03;;;2.70;;
4102;SDS011;2065;49.790;9.620;2022-08-19T14:51:15;3.07;;;2.83;;
4102;SDS011;2065;49.790;9.620;2022-08-19T14:53:42;7.13;;;2.70;;
4102;SDS011;2065;49.790;9.620;2022-08-19T14:56:09;2.80;;;2.60;;
4102;SDS011;2065;49.790;9.620;2022-08-19T14:58:37;3.10;;;2.80;;
4102;SDS011;2065;49.790;9.620;2022-08-19T15:01:07;3.37;;;3.17;;
4102;SDS011;2065;49.790;9.620;2022-08-19T15:03:35;3.30;;;3.00;;
4102;SDS011;2065;49.790;9.620;2022-08-19T15:06:03;4.00;;;3.20;;
4102;SDS011;2065;49.790;9.620;2022-08-19T15:08:32;4.73;;;3.03;;
4102;SDS011;2065;49.790;9.620;2022-08-19T15:11:02;3.47;;;3.17;;